createdAt,value
2022-12-26T00:01:27.026Z,97821.84
2022-12-26T00:03:59.526Z,97820.72
2022-12-26T00:06:31.286Z,97816.75
2022-12-26T00:09:02.394Z,97833.44
2022-12-26T00:11:32.714Z,97829.31
2022-12-26T00:14:04.736Z,97833.97
2022-12-26T00:16:35.250Z,97823.19
2022-12-26T00:19:07.191Z,97807.69
2022-12-26T00:21:37.316Z,97816.88
2022-12-26T00:24:07.973Z,97819.28
2022-12-26T00:26:38.158Z,97820.00
2022-12-26T00:29:08.313Z,97810.00
2022-12-26T00:31:38.877Z,97814.88
2022-12-26T00:34:11.293Z,97809.66
2022-12-26T00:36:41.654Z,97811.63
2022-12-26T00:39:11.494Z,97824.94
2022-12-26T00:41:41.370Z,97823.66
2022-12-26T00:44:11.666Z,97825.09
2022-12-26T00:46:42.490Z,97825.94
2022-12-26T00:49:14.547Z,97827.19
2022-12-26T00:51:44.622Z,97821.28
2022-12-26T00:54:14.256Z,97823.47
2022-12-26T00:56:44.299Z,97824.38
2022-12-26T00:59:16.099Z,97818.19
2022-12-26T01:01:46.405Z,97826.78
2022-12-26T01:04:18.700Z,97834.81
2022-12-26T01:06:49.205Z,97832.84
2022-12-26T01:09:19.344Z,97832.84
2022-12-26T01:11:50.340Z,97827.63
2022-12-26T01:14:21.590Z,97841.19
2022-12-26T01:16:51.553Z,97840.16
2022-12-26T01:19:23.347Z,97832.56
2022-12-26T01:21:53.318Z,97840.25
2022-12-26T01:24:23.483Z,97838.41
2022-12-26T01:26:53.549Z,97826.88
2022-12-26T01:29:24.074Z,97822.47
2022-12-26T01:31:54.220Z,97815.72
2022-12-26T01:34:26.026Z,97814.44
2022-12-26T01:36:56.013Z,97807.06
2022-12-26T01:39:26.511Z,97808.03
2022-12-26T01:41:57.246Z,97808.44
2022-12-26T01:45:00.417Z,97799.44
2022-12-26T01:47:43.342Z,97808.16
2022-12-26T01:50:28.455Z,97816.34
2022-12-26T01:53:00.961Z,97829.13
2022-12-26T01:55:31.638Z,97848.78
2022-12-26T01:58:06.318Z,97852.34
2022-12-26T02:00:37.712Z,97857.69
2022-12-26T02:03:27.829Z,97845.94
2022-12-26T02:06:01.683Z,97857.44
2022-12-26T02:08:34.127Z,97860.22
2022-12-26T02:11:10.107Z,97841.38
2022-12-26T02:13:41.279Z,97846.63
2022-12-26T02:16:15.009Z,97844.75
2022-12-26T02:18:44.920Z,97852.72
2022-12-26T02:21:36.994Z,97840.00
2022-12-26T02:24:32.896Z,97834.03
2022-12-26T02:27:24.393Z,97848.84
2022-12-26T02:30:24.269Z,97851.44
2022-12-26T02:33:23.829Z,97843.00
2022-12-26T02:36:43.338Z,97830.22
2022-12-26T02:39:44.330Z,97837.16
2022-12-26T02:42:18.850Z,97819.41
2022-12-26T02:45:12.037Z,97807.03
2022-12-26T02:47:51.205Z,97811.91
2022-12-26T02:50:43.351Z,97812.78
2022-12-26T02:53:35.728Z,97805.91
2022-12-26T02:56:29.414Z,97816.19
2022-12-26T02:59:20.534Z,97819.16
2022-12-26T03:02:29.437Z,97811.31
2022-12-26T03:05:18.481Z,97801.97
2022-12-26T03:08:07.411Z,97798.88
2022-12-26T03:10:55.894Z,97798.44
2022-12-26T03:13:29.515Z,97797.16
2022-12-26T03:16:20.704Z,97809.53
2022-12-26T03:18:58.071Z,97815.69
2022-12-26T03:21:32.661Z,97816.34
2022-12-26T03:24:05.024Z,97811.25
2022-12-26T03:26:41.572Z,97821.97
2022-12-26T03:29:33.290Z,97814.31
2022-12-26T03:32:05.356Z,97810.25
2022-12-26T03:34:35.007Z,97824.31
2022-12-26T03:37:49.052Z,97822.19
2022-12-26T03:40:59.446Z,97830.03
2022-12-26T03:44:05.410Z,97832.88
2022-12-26T03:47:01.686Z,97834.19
2022-12-26T03:49:52.080Z,97845.59
2022-12-26T03:52:44.389Z,97845.63
2022-12-26T03:55:38.710Z,97849.03
2022-12-26T03:58:27.799Z,97851.06
2022-12-26T04:01:15.743Z,97852.09
2022-12-26T04:04:05.557Z,97850.13
2022-12-26T04:06:57.990Z,97845.03
2022-12-26T04:09:52.441Z,97837.53
2022-12-26T04:12:43.619Z,97837.47
2022-12-26T04:15:36.433Z,97828.16
2022-12-26T04:18:29.312Z,97826.84
2022-12-26T04:21:33.042Z,97833.09
2022-12-26T04:24:25.249Z,97831.75
2022-12-26T04:27:15.676Z,97824.03
2022-12-26T04:30:04.882Z,97831.97
2022-12-26T04:32:57.051Z,97833.50
2022-12-26T04:35:48.499Z,97835.47
2022-12-26T04:38:39.736Z,97831.59
2022-12-26T04:41:28.083Z,97828.81
2022-12-26T04:44:10.499Z,97829.78
2022-12-26T04:46:45.397Z,97828.56
2022-12-26T04:49:35.094Z,97833.50
2022-12-26T04:52:08.068Z,97842.38
2022-12-26T04:54:38.203Z,97839.63
2022-12-26T04:57:09.848Z,97834.34
2022-12-26T04:59:39.622Z,97826.03
2022-12-26T05:02:29.049Z,97820.69
2022-12-26T05:05:17.099Z,97823.41
2022-12-26T05:08:04.459Z,97828.25
2022-12-26T05:10:34.434Z,97841.41
2022-12-26T05:13:04.628Z,97843.59
2022-12-26T05:15:55.554Z,97845.72
2022-12-26T05:18:44.916Z,97848.81
2022-12-26T05:21:32.337Z,97855.94
2022-12-26T05:24:19.828Z,97852.91
2022-12-26T05:27:07.097Z,97857.03
2022-12-26T05:29:37.220Z,97846.28
2022-12-26T05:32:07.068Z,97845.50
2022-12-26T05:34:39.151Z,97845.75
2022-12-26T05:37:09.726Z,97853.22
2022-12-26T05:39:40.024Z,97854.66
2022-12-26T05:42:09.928Z,97858.09
2022-12-26T05:44:40.643Z,97862.31
2022-12-26T05:47:11.015Z,97869.91
2022-12-26T05:49:43.037Z,97876.22
2022-12-26T05:52:13.277Z,97878.03
2022-12-26T05:54:43.179Z,97877.75
2022-12-26T05:57:13.449Z,97884.56
2022-12-26T05:59:42.995Z,97880.44
2022-12-26T06:02:12.935Z,97881.97
2022-12-26T06:04:44.627Z,97870.75
2022-12-26T06:07:15.213Z,97872.84
2022-12-26T06:09:44.937Z,97872.94
2022-12-26T06:12:15.390Z,97879.38
2022-12-26T06:14:45.614Z,97880.78
2022-12-26T06:17:16.050Z,97873.94
2022-12-26T06:19:47.349Z,97862.06
2022-12-26T06:22:17.260Z,97867.59
2022-12-26T06:24:48.305Z,97867.34
2022-12-26T06:27:18.980Z,97855.06
2022-12-26T06:29:48.998Z,97857.75
2022-12-26T06:32:18.602Z,97851.53
2022-12-26T06:34:50.175Z,97844.72
2022-12-26T06:37:20.243Z,97847.88
2022-12-26T06:39:50.197Z,97843.31
2022-12-26T06:42:20.134Z,97835.88
2022-12-26T06:44:49.731Z,97839.06
2022-12-26T06:47:19.579Z,97844.88
2022-12-26T06:49:51.930Z,97861.41
2022-12-26T06:52:22.427Z,97861.91
2022-12-26T06:54:52.638Z,97855.75
2022-12-26T06:57:22.860Z,97854.19
2022-12-26T06:59:52.933Z,97860.84
2022-12-26T07:02:23.040Z,97865.56
2022-12-26T07:04:55.455Z,97873.19
2022-12-26T07:07:25.839Z,97872.09
2022-12-26T07:09:56.079Z,97863.34
2022-12-26T07:12:26.124Z,97863.81
2022-12-26T07:15:01.380Z,97868.75
2022-12-26T07:17:32.260Z,97866.09
2022-12-26T07:20:04.371Z,97865.38
2022-12-26T07:22:34.564Z,97864.66
2022-12-26T07:25:05.311Z,97869.13
2022-12-26T07:27:35.101Z,97871.66
2022-12-26T07:30:06.114Z,97874.69
2022-12-26T07:32:36.485Z,97862.53
2022-12-26T07:35:09.081Z,97854.19
2022-12-26T07:37:39.513Z,97859.25
2022-12-26T07:40:13.446Z,97866.38
2022-12-26T07:42:43.115Z,97875.75
2022-12-26T07:45:13.331Z,97879.34
2022-12-26T07:47:43.889Z,97879.72
2022-12-26T07:50:16.005Z,97878.31
2022-12-26T07:52:46.600Z,97888.13
2022-12-26T07:55:16.784Z,97880.25
2022-12-26T07:57:48.958Z,97890.38
2022-12-26T08:00:21.144Z,97894.25
2022-12-26T08:02:53.738Z,97896.06
2022-12-26T08:05:25.973Z,97892.38
2022-12-26T08:07:56.349Z,97891.53
2022-12-26T08:10:26.803Z,97893.53
2022-12-26T08:12:56.605Z,97893.53
2022-12-26T08:15:26.803Z,97887.22
2022-12-26T08:17:57.140Z,97889.34
2022-12-26T08:20:28.672Z,97895.28
2022-12-26T08:25:34.965Z,97888.78
2022-12-26T08:28:07.210Z,97899.19
2022-12-26T08:30:37.196Z,97893.81
2022-12-26T08:33:07.644Z,97888.53
2022-12-26T08:35:40.355Z,97893.16
2022-12-26T08:38:11.481Z,97903.22
2022-12-26T08:40:44.024Z,97906.81
2022-12-26T08:43:45.019Z,97908.16
2022-12-26T08:46:07.138Z,97904.91
2022-12-26T08:48:38.740Z,97913.53
2022-12-26T08:51:13.055Z,97908.44
2022-12-26T08:53:43.799Z,97919.16
2022-12-26T08:56:16.009Z,97917.97
2022-12-26T08:58:46.402Z,97920.94
2022-12-26T09:01:17.818Z,97921.44
2022-12-26T09:03:48.642Z,97933.56
2022-12-26T09:06:20.973Z,97931.88
2022-12-26T09:08:51.056Z,97927.31
2022-12-26T09:11:23.403Z,97923.91
2022-12-26T09:13:53.769Z,97916.06
2022-12-26T09:16:26.576Z,97914.06
2022-12-26T09:18:58.341Z,97918.88
2022-12-26T09:21:30.921Z,97918.47
2022-12-26T09:24:02.120Z,97921.41
2022-12-26T09:26:33.029Z,97922.06
2022-12-26T09:29:02.722Z,97913.03
2022-12-26T09:31:34.558Z,97911.66
2022-12-26T09:34:05.778Z,97905.72
2022-12-26T09:36:39.280Z,97898.03
2022-12-26T09:39:10.799Z,97882.53
2022-12-26T09:41:57.830Z,97881.88
2022-12-26T09:44:32.993Z,97873.22
2022-12-26T09:47:10.395Z,97881.63
2022-12-26T09:49:44.702Z,97877.75
2022-12-26T09:52:19.913Z,97869.88
2022-12-26T09:54:56.572Z,97864.53
2022-12-26T09:57:32.188Z,97863.50
2022-12-26T10:00:06.716Z,97866.66
2022-12-26T10:02:37.477Z,97875.19
2022-12-26T10:05:09.027Z,97866.88
2022-12-26T10:07:44.208Z,97863.66
2022-12-26T10:10:16.128Z,97855.34
2022-12-26T10:12:55.736Z,97855.34
2022-12-26T10:15:40.451Z,97840.94
2022-12-26T10:18:24.645Z,97841.81
2022-12-26T10:21:16.458Z,97838.78
2022-12-26T10:23:50.383Z,97825.06
2022-12-26T10:26:24.024Z,97814.72
2022-12-26T10:28:58.679Z,97825.13
2022-12-26T10:31:32.805Z,97825.69
2022-12-26T10:34:09.934Z,97835.59
2022-12-26T10:36:43.173Z,97840.22
2022-12-26T10:39:20.366Z,97848.47
2022-12-26T10:41:53.899Z,97862.50
2022-12-26T10:44:27.982Z,97868.56
2022-12-26T10:47:22.197Z,97858.13
2022-12-26T10:49:52.991Z,97853.84
2022-12-26T10:52:27.564Z,97852.47
2022-12-26T10:55:29.271Z,97871.78
2022-12-26T10:57:53.841Z,97886.84
2022-12-26T11:00:26.517Z,97884.97
2022-12-26T11:03:07.968Z,97876.38
2022-12-26T11:06:09.997Z,97870.75
2022-12-26T11:08:35.048Z,97868.63
2022-12-26T11:11:14.280Z,97860.06
2022-12-26T11:13:48.475Z,97864.22
2022-12-26T11:16:28.127Z,97847.38
2022-12-26T11:18:58.903Z,97844.28
2022-12-26T11:21:30.872Z,97847.78
2022-12-26T11:24:19.801Z,97849.31
2022-12-26T11:26:51.248Z,97862.00
2022-12-26T11:29:23.249Z,97852.75
2022-12-26T11:31:58.645Z,97843.63
2022-12-26T11:34:33.006Z,97839.47
2022-12-26T11:37:04.255Z,97841.75
2022-12-26T11:39:36.586Z,97848.84
2022-12-26T11:42:16.357Z,97845.44
2022-12-26T11:44:49.834Z,97842.09
2022-12-26T11:47:22.285Z,97831.25
2022-12-26T11:49:59.836Z,97826.72
2022-12-26T11:52:40.615Z,97824.16
2022-12-26T11:55:30.704Z,97832.63
2022-12-26T11:58:06.940Z,97836.97
2022-12-26T12:00:39.467Z,97843.13
2022-12-26T12:03:15.050Z,97835.41
2022-12-26T12:05:50.764Z,97831.50
2022-12-26T12:08:35.737Z,97823.75
2022-12-26T12:11:18.985Z,97818.34
2022-12-26T12:14:02.060Z,97815.66
2022-12-26T12:16:45.332Z,97811.84
2022-12-26T12:19:29.952Z,97807.59
2022-12-26T12:22:11.877Z,97813.38
2022-12-26T12:25:05.769Z,97813.41
2022-12-26T12:27:39.814Z,97816.13
2022-12-26T12:30:20.199Z,97812.69
2022-12-26T12:33:23.283Z,97820.03
2022-12-26T12:36:03.765Z,97820.41
2022-12-26T12:38:37.835Z,97824.66
2022-12-26T12:41:20.632Z,97825.09
2022-12-26T12:43:56.646Z,97821.59
2022-12-26T12:46:35.643Z,97813.50
2022-12-26T12:49:35.199Z,97804.63
2022-12-26T12:52:13.813Z,97807.69
2022-12-26T12:55:23.078Z,97808.50
2022-12-26T12:57:55.552Z,97810.03
2022-12-26T13:00:28.459Z,97813.88
2022-12-26T13:03:04.081Z,97811.56
2022-12-26T13:05:44.405Z,97802.69
2022-12-26T13:08:17.865Z,97799.22
2022-12-26T13:10:51.645Z,97797.66
2022-12-26T13:13:27.619Z,97794.97
2022-12-26T13:16:02.282Z,97801.50
2022-12-26T13:18:37.728Z,97800.00
2022-12-26T13:21:09.317Z,97802.31
2022-12-26T13:24:00.231Z,97810.38
2022-12-26T13:26:33.255Z,97804.59
2022-12-26T13:29:06.019Z,97806.94
2022-12-26T13:31:37.999Z,97803.06
2022-12-26T13:34:12.731Z,97795.38
2022-12-26T13:36:45.560Z,97794.19
2022-12-26T13:39:41.869Z,97796.91
2022-12-26T13:42:50.604Z,97799.22
2022-12-26T13:46:02.009Z,97798.06
2022-12-26T13:49:00.567Z,97793.81
2022-12-26T13:51:57.535Z,97789.19
2022-12-26T13:54:29.190Z,97781.88
2022-12-26T13:57:22.228Z,97787.25
2022-12-26T14:00:12.921Z,97794.22
2022-12-26T14:03:25.391Z,97790.34
2022-12-26T14:06:26.293Z,97790.75
2022-12-26T14:09:22.270Z,97786.91
2022-12-26T14:12:12.783Z,97783.41
2022-12-26T14:14:56.635Z,97786.50
2022-12-26T14:17:34.044Z,97790.75
2022-12-26T14:20:15.692Z,97800.78
2022-12-26T14:22:50.732Z,97791.50
2022-12-26T14:25:26.774Z,97793.44
2022-12-26T14:28:02.951Z,97797.66
2022-12-26T14:30:38.212Z,97795.34
2022-12-26T14:33:25.701Z,97789.19
2022-12-26T14:36:04.653Z,97786.47
2022-12-26T14:38:44.856Z,97794.56
2022-12-26T14:41:31.910Z,97797.25
2022-12-26T14:44:15.398Z,97804.97
2022-12-26T14:47:01.460Z,97803.03
2022-12-26T14:49:44.044Z,97801.50
2022-12-26T14:52:48.678Z,97801.06
2022-12-26T14:55:50.578Z,97788.31
2022-12-26T14:58:42.065Z,97795.25
2022-12-26T15:01:47.051Z,97785.94
2022-12-26T15:04:54.989Z,97778.50
2022-12-26T15:08:11.278Z,97793.50
2022-12-26T15:11:18.036Z,97792.00
2022-12-26T15:14:20.992Z,97792.69
2022-12-26T15:17:02.695Z,97790.34
2022-12-26T15:20:08.346Z,97793.00
2022-12-26T15:23:19.153Z,97786.03
2022-12-26T15:26:11.728Z,97792.13
2022-12-26T15:29:25.293Z,97787.88
2022-12-26T15:32:07.314Z,97780.84
2022-12-26T15:35:03.853Z,97780.06
2022-12-26T15:37:50.830Z,97793.88
2022-12-26T15:40:26.031Z,97802.28
2022-12-26T15:43:15.719Z,97802.00
2022-12-26T15:45:50.165Z,97799.16
2022-12-26T15:48:35.642Z,97801.91
2022-12-26T15:51:12.044Z,97806.41
2022-12-26T15:53:56.485Z,97805.31
2022-12-26T15:56:53.278Z,97801.50
2022-12-26T15:59:55.891Z,97809.88
2022-12-26T16:02:47.460Z,97811.44
2022-12-26T16:05:39.814Z,97812.91
2022-12-26T16:08:42.450Z,97808.94
2022-12-26T16:11:22.185Z,97806.00
2022-12-26T16:13:56.400Z,97802.94
2022-12-26T16:16:33.978Z,97801.41
2022-12-26T16:19:20.061Z,97795.75
2022-12-26T16:22:12.208Z,97790.53
2022-12-26T16:24:44.556Z,97802.75
2022-12-26T16:27:18.980Z,97796.91
2022-12-26T16:29:51.273Z,97796.25
2022-12-26T16:32:24.988Z,97804.00
2022-12-26T16:34:55.753Z,97816.22
2022-12-26T16:37:29.130Z,97810.25
2022-12-26T16:40:27.304Z,97809.38
2022-12-26T16:43:00.897Z,97814.09
2022-12-26T16:45:35.422Z,97804.84
2022-12-26T16:48:09.127Z,97803.25
2022-12-26T16:50:47.608Z,97812.81
2022-12-26T16:53:20.565Z,97811.97
2022-12-26T16:55:53.453Z,97809.66
2022-12-26T16:58:27.322Z,97809.72
2022-12-26T17:01:04.640Z,97812.97
2022-12-26T17:03:40.482Z,97815.84
2022-12-26T17:06:14.413Z,97824.50
2022-12-26T17:08:49.639Z,97821.75
2022-12-26T17:11:21.293Z,97818.28
2022-12-26T17:13:54.867Z,97812.66
2022-12-26T17:16:26.867Z,97816.63
2022-12-26T17:18:58.529Z,97819.19
2022-12-26T17:21:31.081Z,97818.13
2022-12-26T17:24:26.115Z,97814.59
2022-12-26T17:27:11.853Z,97805.16
2022-12-26T17:29:52.105Z,97798.53
2022-12-26T17:32:29.376Z,97795.66
2022-12-26T17:35:03.729Z,97797.59
2022-12-26T17:37:34.535Z,97789.59
2022-12-26T17:40:25.667Z,97788.69
2022-12-26T17:43:06.640Z,97793.38
2022-12-26T17:45:40.029Z,97792.56
2022-12-26T17:48:13.958Z,97790.69
2022-12-26T17:50:47.225Z,97769.66
2022-12-26T17:53:29.894Z,97764.16
2022-12-26T17:56:04.337Z,97771.69
2022-12-26T17:58:35.820Z,97774.63
2022-12-26T18:01:06.466Z,97773.09
2022-12-26T18:03:36.680Z,97777.88
2022-12-26T18:06:06.986Z,97781.06
2022-12-26T18:08:40.017Z,97781.66
2022-12-26T18:11:13.762Z,97788.25
2022-12-26T18:13:45.353Z,97792.13
2022-12-26T18:16:19.042Z,97789.53
2022-12-26T18:18:50.439Z,97787.28
2022-12-26T18:21:20.700Z,97789.81
2022-12-26T18:23:50.811Z,97774.34
2022-12-26T18:26:27.029Z,97778.28
2022-12-26T18:28:58.149Z,97777.50
2022-12-26T18:31:29.359Z,97774.59
2022-12-26T18:34:00.868Z,97774.53
2022-12-26T18:36:33.670Z,97775.72
2022-12-26T18:39:04.695Z,97780.19
2022-12-26T18:41:36.563Z,97782.06
2022-12-26T18:44:06.380Z,97785.38
2022-12-26T18:46:37.353Z,97789.81
2022-12-26T18:49:07.864Z,97787.59
2022-12-26T18:51:39.715Z,97783.06
2022-12-26T18:54:09.689Z,97787.00
2022-12-26T18:56:41.533Z,97782.09
2022-12-26T18:59:13.230Z,97778.75
2022-12-26T19:01:43.312Z,97797.88
2022-12-26T19:04:16.317Z,97792.78
2022-12-26T19:06:46.418Z,97786.09
2022-12-26T19:09:16.907Z,97779.19
2022-12-26T19:11:48.695Z,97776.28
2022-12-26T19:14:23.738Z,97770.47
2022-12-26T19:16:53.425Z,97765.03
2022-12-26T19:19:26.765Z,97764.94
2022-12-26T19:21:57.013Z,97750.94
2022-12-26T19:24:27.937Z,97755.75
2022-12-26T19:26:58.625Z,97765.84
2022-12-26T19:29:28.974Z,97765.56
2022-12-26T19:31:59.304Z,97780.91
2022-12-26T19:34:29.405Z,97777.78
2022-12-26T19:36:58.982Z,97785.41
2022-12-26T19:39:29.969Z,97793.59
2022-12-26T19:42:01.843Z,97805.69
2022-12-26T19:44:33.029Z,97816.00
2022-12-26T19:47:12.233Z,97828.97
2022-12-26T19:49:42.875Z,97834.44
2022-12-26T19:52:12.982Z,97840.13
2022-12-26T19:54:42.962Z,97850.31
2022-12-26T19:57:14.322Z,97854.28
2022-12-26T19:59:44.449Z,97846.16
2022-12-26T20:02:15.369Z,97851.72
2022-12-26T20:04:45.016Z,97854.38
2022-12-26T20:07:15.583Z,97842.28
2022-12-26T20:09:45.184Z,97852.81
2022-12-26T20:12:17.191Z,97863.38
2022-12-26T20:14:47.317Z,97867.91
2022-12-26T20:17:16.742Z,97870.19
2022-12-26T20:19:48.098Z,97867.88
2022-12-26T20:22:17.793Z,97875.50
2022-12-26T20:24:48.331Z,97877.91
2022-12-26T20:27:19.865Z,97888.03
2022-12-26T20:29:49.904Z,97886.66
2022-12-26T20:32:19.730Z,97885.09
2022-12-26T20:34:49.299Z,97888.34
2022-12-26T20:37:19.027Z,97877.91
2022-12-26T20:39:48.998Z,97893.75
2022-12-26T20:42:20.727Z,97903.81
2022-12-26T20:44:51.396Z,97906.03
2022-12-26T20:47:22.063Z,97907.28
2022-12-26T20:49:52.428Z,97907.06
2022-12-26T20:52:22.034Z,97907.78
2022-12-26T20:54:53.854Z,97912.53
2022-12-26T20:57:25.281Z,97919.78
2022-12-26T20:59:55.579Z,97926.94
2022-12-26T21:02:25.573Z,97936.75
2022-12-26T21:04:56.567Z,97947.31
2022-12-26T21:07:26.547Z,97940.31
2022-12-26T21:09:57.219Z,97958.44
2022-12-26T21:12:28.763Z,97960.88
2022-12-26T21:14:59.090Z,97964.22
2022-12-26T21:17:29.055Z,97969.91
2022-12-26T21:19:59.444Z,97965.63
2022-12-26T21:22:30.625Z,97961.09
2022-12-26T21:25:00.886Z,97961.50
2022-12-26T21:27:33.185Z,97955.44
2022-12-26T21:30:03.925Z,97962.53
2022-12-26T21:32:33.989Z,97980.00
2022-12-26T21:35:04.731Z,97986.72
2022-12-26T21:37:53.439Z,97982.28
2022-12-26T21:40:26.100Z,97988.78
2022-12-26T21:42:59.074Z,97993.81
2022-12-26T21:45:29.382Z,98000.00
2022-12-26T21:47:59.288Z,97993.78
2022-12-26T21:50:29.235Z,98002.75
2022-12-26T21:52:59.366Z,98006.94
2022-12-26T21:55:31.320Z,98005.44
2022-12-26T21:58:04.474Z,98006.25
2022-12-26T22:00:35.925Z,98015.28
2022-12-26T22:03:25.333Z,98018.97
2022-12-26T22:05:55.218Z,98024.50
2022-12-26T22:08:25.588Z,98028.59
2022-12-26T22:11:27.499Z,98021.91
2022-12-26T22:13:58.674Z,98022.88
2022-12-26T22:16:30.143Z,98037.69
2022-12-26T22:19:00.431Z,98031.59
2022-12-26T22:21:30.728Z,98035.97
2022-12-26T22:24:00.780Z,98040.00
2022-12-26T22:26:32.783Z,98045.03
2022-12-26T22:29:04.257Z,98051.84
2022-12-26T22:31:36.536Z,98042.47
2022-12-26T22:34:09.617Z,98047.81
2022-12-26T22:36:39.815Z,98047.19
2022-12-26T22:39:09.623Z,98040.78
2022-12-26T22:41:40.383Z,98039.31
2022-12-26T22:44:12.953Z,98042.47
2022-12-26T22:46:43.287Z,98028.38
2022-12-26T22:49:13.582Z,98031.69
2022-12-26T22:51:45.223Z,98034.41
2022-12-26T22:54:16.242Z,98024.06
2022-12-26T22:56:46.742Z,98030.28
2022-12-26T22:59:49.339Z,98028.31
2022-12-26T23:02:09.431Z,98018.38
2022-12-26T23:04:40.134Z,98036.13
2022-12-26T23:07:13.948Z,98040.94
2022-12-26T23:09:43.693Z,98034.69
2022-12-26T23:12:32.213Z,98038.69
2022-12-26T23:15:05.137Z,98055.53
2022-12-26T23:17:56.393Z,98059.78
2022-12-26T23:20:46.932Z,98055.69
2022-12-26T23:23:18.094Z,98040.88
2022-12-26T23:25:48.011Z,98044.75
2022-12-26T23:28:35.986Z,98034.03
2022-12-26T23:31:09.033Z,98030.53
2022-12-26T23:33:39.457Z,98034.19
2022-12-26T23:36:10.406Z,98041.31
2022-12-26T23:38:39.917Z,98032.44
2022-12-26T23:41:10.448Z,98022.47
2022-12-26T23:43:41.028Z,98017.00
2022-12-26T23:46:13.869Z,98025.38
2022-12-26T23:48:43.986Z,98021.19
2022-12-26T23:51:14.048Z,98016.69
2022-12-26T23:53:44.323Z,98004.41
2022-12-26T23:56:14.129Z,97991.69
2022-12-26T23:58:44.225Z,97988.69
